createdAt,value
2022-10-23T00:00:15.141Z,89
2022-10-23T00:05:15.108Z,89
2022-10-23T00:10:15.103Z,89
2022-10-23T00:15:15.095Z,89
2022-10-23T00:20:15.093Z,89
2022-10-23T00:25:15.091Z,89
2022-10-23T00:30:15.300Z,89
2022-10-23T00:35:15.097Z,89
2022-10-23T00:40:15.110Z,89
2022-10-23T00:45:15.107Z,89
2022-10-23T00:50:15.096Z,89
2022-10-23T00:55:15.100Z,89
2022-10-23T01:00:15.090Z,89
2022-10-23T01:05:15.099Z,89
2022-10-23T01:10:15.092Z,89
2022-10-23T01:15:15.095Z,89
2022-10-23T01:20:15.090Z,89
2022-10-23T01:25:15.094Z,89
2022-10-23T01:30:15.086Z,89
2022-10-23T01:35:15.119Z,89
2022-10-23T01:40:15.103Z,89
2022-10-23T01:45:15.105Z,89
2022-10-23T01:50:15.093Z,89
2022-10-23T01:55:15.106Z,89
2022-10-23T02:00:15.091Z,89
2022-10-23T02:05:15.110Z,89
2022-10-23T02:10:15.098Z,89
2022-10-23T02:15:15.097Z,89
2022-10-23T02:20:15.094Z,89
2022-10-23T02:25:15.104Z,89
2022-10-23T02:30:15.089Z,89
2022-10-23T02:35:15.109Z,89
2022-10-23T02:40:15.100Z,90
2022-10-23T02:45:15.111Z,90
2022-10-23T02:50:15.107Z,90
2022-10-23T02:55:15.094Z,90
2022-10-23T03:00:15.098Z,90
2022-10-23T03:05:15.105Z,90
2022-10-23T03:10:15.093Z,90
2022-10-23T03:15:15.106Z,90
2022-10-23T03:20:15.105Z,90
2022-10-23T03:25:15.097Z,90
2022-10-23T03:30:15.104Z,90
2022-10-23T03:35:15.098Z,90
2022-10-23T03:40:15.101Z,90
2022-10-23T03:45:15.103Z,90
2022-10-23T03:50:15.093Z,90
2022-10-23T03:55:15.104Z,90
2022-10-23T04:00:15.090Z,90
2022-10-23T04:05:15.093Z,90
2022-10-23T04:10:15.096Z,90
2022-10-23T04:15:15.098Z,90
2022-10-23T04:20:15.099Z,90
2022-10-23T04:25:15.113Z,90
2022-10-23T04:30:15.104Z,90
2022-10-23T04:35:15.102Z,90
2022-10-23T04:40:15.108Z,90
2022-10-23T04:45:15.096Z,90
2022-10-23T04:50:15.096Z,90
2022-10-23T04:55:15.092Z,90
2022-10-23T05:00:15.094Z,90
2022-10-23T05:05:15.121Z,90
2022-10-23T05:10:15.110Z,90
2022-10-23T05:15:15.103Z,90
2022-10-23T05:20:15.095Z,90
2022-10-23T05:25:15.107Z,90
2022-10-23T05:30:15.103Z,90
2022-10-23T05:35:15.097Z,90
2022-10-23T05:40:15.100Z,90
2022-10-23T05:45:15.102Z,90
2022-10-23T05:50:15.097Z,90
2022-10-23T05:55:15.094Z,90
2022-10-23T06:00:15.095Z,90
2022-10-23T06:05:15.098Z,90
2022-10-23T06:10:15.087Z,90
2022-10-23T06:15:15.103Z,90
2022-10-23T06:20:15.092Z,90
2022-10-23T06:25:15.117Z,90
2022-10-23T06:30:15.121Z,90
2022-10-23T06:35:15.122Z,90
2022-10-23T06:40:15.095Z,90
2022-10-23T06:45:15.098Z,90
2022-10-23T06:50:15.500Z,90
2022-10-23T06:55:15.110Z,90
2022-10-23T07:00:15.099Z,90
2022-10-23T07:05:15.115Z,90
2022-10-23T07:10:15.098Z,90
2022-10-23T07:15:15.107Z,90
2022-10-23T07:20:15.099Z,90
2022-10-23T07:25:15.110Z,90
2022-10-23T07:30:15.090Z,90
2022-10-23T07:40:15.110Z,90
2022-10-23T07:45:15.091Z,90
2022-10-23T07:50:15.102Z,89
2022-10-23T07:55:15.097Z,89
2022-10-23T08:00:15.159Z,89
2022-10-23T08:05:15.110Z,89
2022-10-23T08:10:15.110Z,89
2022-10-23T08:15:15.101Z,89
2022-10-23T08:20:15.090Z,88
2022-10-23T08:25:15.130Z,88
2022-10-23T08:30:15.099Z,88
2022-10-23T08:35:15.102Z,87
2022-10-23T08:40:15.099Z,86
2022-10-23T08:45:15.106Z,86
2022-10-23T08:50:15.132Z,86
2022-10-23T08:55:15.101Z,85
2022-10-23T09:00:15.092Z,85
2022-10-23T09:05:15.112Z,85
2022-10-23T09:10:15.101Z,85
2022-10-23T09:15:15.097Z,85
2022-10-23T09:20:15.098Z,85
2022-10-23T09:25:15.100Z,84
2022-10-23T09:30:15.095Z,84
2022-10-23T09:35:15.106Z,83
2022-10-23T09:40:15.100Z,83
2022-10-23T09:45:15.111Z,80
2022-10-23T09:50:15.091Z,80
2022-10-23T09:55:15.101Z,80
2022-10-23T10:00:15.085Z,80
2022-10-23T10:05:15.111Z,80
2022-10-23T10:10:15.102Z,80
2022-10-23T10:15:15.105Z,79
2022-10-23T10:20:15.111Z,76
2022-10-23T10:25:15.118Z,75
2022-10-23T10:30:15.105Z,75
2022-10-23T10:35:15.108Z,75
2022-10-23T10:40:15.155Z,75
2022-10-23T10:45:15.086Z,74
2022-10-23T10:50:15.198Z,74
2022-10-23T10:55:15.102Z,73
2022-10-23T11:00:15.210Z,72
2022-10-23T11:05:15.109Z,71
2022-10-23T11:10:15.143Z,71
2022-10-23T11:15:15.107Z,71
2022-10-23T11:20:15.090Z,71
2022-10-23T11:25:15.102Z,71
2022-10-23T11:30:15.083Z,70
2022-10-23T11:35:15.106Z,70
2022-10-23T11:40:15.084Z,70
2022-10-23T11:45:15.104Z,70
2022-10-23T11:50:15.102Z,70
2022-10-23T11:55:15.106Z,70
2022-10-23T12:00:15.088Z,70
2022-10-23T12:05:15.093Z,70
2022-10-23T12:10:15.097Z,70
2022-10-23T12:15:15.102Z,71
2022-10-23T12:20:15.097Z,70
2022-10-23T12:25:15.106Z,69
2022-10-23T12:30:15.097Z,69
2022-10-23T12:35:15.101Z,68
2022-10-23T12:40:15.108Z,69
2022-10-23T12:45:15.099Z,70
2022-10-23T12:50:15.100Z,70
2022-10-23T12:55:15.120Z,71
2022-10-23T13:00:15.087Z,71
2022-10-23T13:05:15.096Z,72
2022-10-23T13:10:15.102Z,72
2022-10-23T13:15:15.098Z,73
2022-10-23T13:20:15.114Z,73
2022-10-23T13:25:15.105Z,73
2022-10-23T13:30:15.098Z,73
2022-10-23T13:35:21.676Z,73
2022-10-23T13:40:15.101Z,72
2022-10-23T13:45:15.093Z,71
2022-10-23T13:50:15.096Z,71
2022-10-23T13:55:15.101Z,71
2022-10-23T14:00:15.109Z,71
2022-10-23T14:05:15.101Z,70
2022-10-23T14:10:15.099Z,70
2022-10-23T14:15:15.097Z,70
2022-10-23T14:20:16.412Z,71
2022-10-23T14:25:15.100Z,71
2022-10-23T14:30:15.095Z,71
2022-10-23T14:35:15.100Z,72
2022-10-23T14:40:15.087Z,72
2022-10-23T14:45:15.107Z,73
2022-10-23T14:50:15.100Z,73
2022-10-23T14:55:15.115Z,74
2022-10-23T15:00:15.094Z,74
2022-10-23T15:05:15.096Z,74
2022-10-23T15:10:15.094Z,74
2022-10-23T15:15:15.110Z,75
2022-10-23T15:20:15.097Z,75
2022-10-23T15:25:17.870Z,75
2022-10-23T15:30:15.100Z,75
2022-10-23T15:35:15.145Z,76
2022-10-23T15:40:15.102Z,77
2022-10-23T15:45:15.105Z,77
2022-10-23T15:50:15.091Z,77
2022-10-23T15:55:15.092Z,77
2022-10-23T16:00:18.283Z,77
2022-10-23T16:05:15.119Z,77
2022-10-23T16:10:15.100Z,77
2022-10-23T16:15:15.199Z,77
2022-10-23T16:20:15.134Z,76
2022-10-23T16:25:15.101Z,76
2022-10-23T16:30:15.097Z,76
2022-10-23T16:35:15.102Z,75
2022-10-23T16:40:15.093Z,75
2022-10-23T16:45:15.096Z,75
2022-10-23T16:50:15.106Z,75
2022-10-23T16:55:15.104Z,76
2022-10-23T17:00:15.117Z,77
2022-10-23T17:05:15.109Z,78
2022-10-23T17:10:15.111Z,77
2022-10-23T17:15:15.111Z,78
2022-10-23T17:20:15.125Z,78
2022-10-23T17:25:15.118Z,78
2022-10-23T17:30:15.113Z,78
2022-10-23T17:35:15.101Z,78
2022-10-23T17:40:15.111Z,78
2022-10-23T17:45:15.107Z,78
2022-10-23T17:50:15.097Z,79
2022-10-23T17:55:15.120Z,79
2022-10-23T18:00:15.103Z,79
2022-10-23T18:05:15.124Z,79
2022-10-23T18:10:15.124Z,78
2022-10-23T18:15:15.099Z,78
2022-10-23T18:20:15.109Z,77
2022-10-23T18:25:15.118Z,77
2022-10-23T18:30:15.101Z,77
2022-10-23T18:35:15.106Z,78
2022-10-23T18:40:15.115Z,78
2022-10-23T18:45:15.106Z,77
2022-10-23T18:50:15.124Z,77
2022-10-23T18:55:15.109Z,77
2022-10-23T19:00:15.104Z,77
2022-10-23T19:05:15.128Z,78
2022-10-23T19:10:15.111Z,78
2022-10-23T19:15:15.138Z,78
2022-10-23T19:20:15.142Z,79
2022-10-23T19:25:15.098Z,78
2022-10-23T19:30:15.539Z,78
2022-10-23T19:35:15.093Z,78
2022-10-23T19:40:15.090Z,78
2022-10-23T19:45:15.117Z,79
2022-10-23T19:50:15.089Z,79
2022-10-23T19:55:15.105Z,79
2022-10-23T20:00:15.103Z,80
2022-10-23T20:05:15.105Z,80
2022-10-23T20:10:15.103Z,80
2022-10-23T20:15:15.109Z,80
2022-10-23T20:20:15.108Z,80
2022-10-23T20:25:15.116Z,81
2022-10-23T20:30:15.104Z,81
2022-10-23T20:35:15.106Z,81
2022-10-23T20:40:15.101Z,81
2022-10-23T20:45:15.114Z,83
2022-10-23T20:50:15.102Z,83
2022-10-23T20:55:15.100Z,84
2022-10-23T21:00:15.089Z,85
2022-10-23T21:05:15.112Z,85
2022-10-23T21:10:15.115Z,85
2022-10-23T21:15:15.114Z,85
2022-10-23T21:20:15.107Z,85
2022-10-23T21:25:15.118Z,86
2022-10-23T21:30:15.113Z,86
2022-10-23T21:35:15.125Z,86
2022-10-23T21:40:15.096Z,85
2022-10-23T21:45:15.105Z,85
2022-10-23T21:50:15.104Z,85
2022-10-23T21:55:15.101Z,84
2022-10-23T22:00:15.097Z,84
2022-10-23T22:05:15.111Z,83
2022-10-23T22:10:15.102Z,83
2022-10-23T22:15:15.110Z,83
2022-10-23T22:20:15.087Z,83
2022-10-23T22:25:15.104Z,83
2022-10-23T22:30:15.089Z,84
2022-10-23T22:35:15.112Z,84
2022-10-23T22:40:15.106Z,84
2022-10-23T22:45:15.095Z,84
2022-10-23T22:50:15.090Z,83
2022-10-23T22:55:15.108Z,83
2022-10-23T23:00:15.104Z,83
2022-10-23T23:05:15.111Z,84
2022-10-23T23:10:15.106Z,84
2022-10-23T23:15:15.106Z,84
2022-10-23T23:20:15.106Z,84
2022-10-23T23:25:15.106Z,84
2022-10-23T23:30:15.090Z,84
2022-10-23T23:35:15.089Z,84
2022-10-23T23:40:15.101Z,84
2022-10-23T23:45:15.374Z,85
2022-10-23T23:50:15.090Z,86
2022-10-23T23:55:15.106Z,86
